Time;durP1;ratioP1;P1;durP2;ratioP2;P2;SDS_P1;SDS_P2;PMS_P1;PMS_P2;Temp;Humidity;BMP_temperature;BMP_pressure;BME280_temperature;BME280_humidity;BME280_pressure;Samples;Min_cycle;Max_cycle;Signal;HPM_P1;HPM_P2
2022/11/13 00:01:20;;;;;;;0.65;0.65;;;9.70;99.90;;;;;;5084762;28;20029;-72
2022/11/13 00:03:46;;;;;;;0.30;0.30;;;;;;;;;;5053290;28;20039;-72
2022/11/13 00:06:13;;;;;;;0.90;0.85;;;;;;;;;;5052349;28;20495;-74
2022/11/13 00:08:39;;;;;;;0.50;0.50;;;;;;;;;;5052325;28;20029;-73
2022/11/13 00:11:14;;;;;;;0.88;0.88;;;9.60;99.90;;;;;;5052459;28;20064;-73
2022/11/13 00:13:41;;;;;;;0.30;0.30;;;;;;;;;;5063456;28;20483;-72
2022/11/13 00:16:12;;;;;;;0.30;0.30;;;;;;;;;;5072110;28;20048;-73
2022/11/13 00:18:38;;;;;;;0.50;0.50;;;;;;;;;;5070856;28;20035;-72
2022/11/13 00:21:10;;;;;;;1.23;1.17;;;9.60;99.90;;;;;;5051535;28;20032;-72
2022/11/13 00:23:36;;;;;;;0.25;0.25;;;;;;;;;;5052234;28;20032;-73
2022/11/13 00:26:13;;;;;;;3.00;1.30;;;;;;;;;;5052139;28;20029;-74
2022/11/13 00:28:39;;;;;;;0.57;0.57;;;;;;;;;;5059644;28;20036;-73
2022/11/13 00:31:06;;;;;;;0.30;0.30;;;9.50;99.90;;;;;;5070552;28;20101;-72
2022/11/13 00:33:32;;;;;;;4.25;1.27;;;;;;;;;;5070639;28;20645;-72
2022/11/13 00:36:15;;;;;;;0.30;0.30;;;;;;;;;;5068684;28;20274;-72
2022/11/13 00:38:41;;;;;;;0.30;0.30;;;;;;;;;;5068696;28;20078;-73
2022/11/13 00:41:07;;;;;;;0.30;0.30;;;;;;;;;;5052214;28;20029;-74
2022/11/13 00:43:33;;;;;;;0.40;0.40;;;;;;;;;;5051526;28;20353;-73
2022/11/13 00:45:59;;;;;;;0.30;0.30;;;;;;;;;;5051621;28;20116;-72
2022/11/13 00:48:25;;;;;;;0.38;0.38;;;;;;;;;;5051655;28;20029;-74
2022/11/13 00:50:51;;;;;;;0.57;0.57;;;;;;;;;;5063896;28;20037;-73
2022/11/13 00:53:17;;;;;;;0.30;0.30;;;;;;;;;;5067365;28;20065;-73
2022/11/13 00:55:44;;;;;;;0.40;0.40;;;;;;;;;;5056689;28;20536;-73
2022/11/13 00:58:12;;;;;;;0.38;0.38;;;9.60;99.90;;;;;;5051522;28;20094;-73
2022/11/13 01:00:39;;;;;;;0.30;0.30;;;9.60;99.90;;;;;;5051862;28;20361;-72
2022/11/13 01:03:05;;;;;;;0.38;0.38;;;;;;;;;;5051363;28;20028;-72
2022/11/13 01:05:39;;;;;;;0.30;0.30;;;9.50;99.90;;;;;;5056925;28;20033;-73
2022/11/13 01:08:05;;;;;;;0.30;0.30;;;9.20;99.90;;;;;;5069603;28;20029;-73
2022/11/13 01:10:31;;;;;;;0.30;0.30;;;;;;;;;;5071322;28;20049;-73
2022/11/13 01:12:56;;;;;;;0.43;0.43;;;9.70;99.90;;;;;;5069149;28;20153;-74
2022/11/13 01:15:25;;;;;;;0.30;0.30;;;;;;;;;;5051582;28;20028;-74
2022/11/13 01:17:53;;;;;;;0.63;0.63;;;9.30;99.90;;;;;;5050851;28;20053;-74
2022/11/13 01:20:20;;;;;;;0.30;0.30;;;;;;;;;;5051669;28;20387;-73
2022/11/13 01:22:45;;;;;;;0.50;0.40;;;;;;;;;;5050999;28;20037;-73
2022/11/13 01:25:12;;;;;;;0.40;0.40;;;;;;;;;;5051228;28;20115;-72
2022/11/13 01:27:38;;;;;;;1.65;0.98;;;;;;;;;;5049594;28;20254;-73
2022/11/13 01:30:04;;;;;;;0.30;0.30;;;;;;;;;;5063432;28;20036;-72
2022/11/13 01:32:30;;;;;;;0.38;0.38;;;;;;;;;;5069482;28;20112;-73
2022/11/13 01:34:56;;;;;;;0.40;0.40;;;;;;;;;;5069622;28;20387;-72
2022/11/13 01:37:22;;;;;;;0.30;0.30;;;;;;;;;;5068525;28;20025;-73
2022/11/13 01:39:48;;;;;;;0.87;0.87;;;;;;;;;;5071086;28;20270;-73
2022/11/13 01:42:14;;;;;;;0.30;0.30;;;;;;;;;;5057525;28;20265;-73
2022/11/13 01:44:46;;;;;;;0.30;0.30;;;9.60;99.90;;;;;;5049367;28;20471;-73
2022/11/13 01:47:12;;;;;;;0.30;0.30;;;;;;;;;;5050793;28;20089;-73
2022/11/13 01:49:40;;;;;;;0.30;0.30;;;9.70;99.90;;;;;;5049424;28;20061;-74
2022/11/13 01:52:10;;;;;;;0.40;0.40;;;9.50;99.90;;;;;;5051853;28;20364;-73
2022/11/13 01:54:38;;;;;;;0.40;0.40;;;;;;;;;;5050966;28;20117;-73
2022/11/13 01:57:04;;;;;;;0.90;0.88;;;9.50;99.90;;;;;;5051529;28;20067;-73
2022/11/13 01:59:36;;;;;;;0.70;0.70;;;9.70;99.90;;;;;;5051880;28;20044;-73
2022/11/13 02:02:02;;;;;;;0.30;0.30;;;;;;;;;;5061428;28;20032;-73
2022/11/13 02:04:28;;;;;;;0.65;0.65;;;;;;;;;;5069979;28;20036;-73
2022/11/13 02:07:00;;;;;;;0.43;0.43;;;9.20;99.90;;;;;;5063818;28;20059;-72
2022/11/13 02:09:30;;;;;;;0.30;0.30;;;9.60;99.90;;;;;;5049982;28;20419;-73
2022/11/13 02:11:56;;;;;;;0.45;0.45;;;;;;;;;;5068369;28;20031;-72
2022/11/13 02:14:25;;;;;;;0.30;0.30;;;;;;;;;;5070484;28;20479;-74
2022/11/13 02:16:53;;;;;;;0.30;0.30;;;;;;;;;;5070439;28;20029;-73
2022/11/13 02:19:23;;;;;;;0.30;0.30;;;;;;;;;;5070572;28;20064;-73
2022/11/13 02:22:21;;;;;;;0.30;0.30;;;9.50;99.90;;;;;;5056200;28;20025;-74
2022/11/13 02:24:47;;;;;;;0.30;0.30;;;;;;;;;;5060132;28;20086;-73
2022/11/13 02:27:21;;;;;;;0.30;0.30;;;9.40;99.90;;;;;;5059799;28;20466;-72
2022/11/13 02:29:49;;;;;;;0.30;0.30;;;9.40;99.90;;;;;;5048803;28;20044;-73
2022/11/13 02:32:15;;;;;;;0.30;0.30;;;;;;;;;;5053310;28;20375;-73
2022/11/13 02:34:41;;;;;;;0.93;0.93;;;;;;;;;;5053081;28;20124;-73
2022/11/13 02:37:07;;;;;;;0.30;0.30;;;;;;;;;;5061084;28;20146;-73
2022/11/13 02:39:33;;;;;;;0.30;0.30;;;;;;;;;;5055027;28;20388;-73
2022/11/13 02:41:59;;;;;;;0.33;0.33;;;;;;;;;;5054314;28;20036;-73
2022/11/13 02:44:25;;;;;;;0.30;0.30;;;;;;;;;;5070627;28;20682;-74
2022/11/13 02:46:51;;;;;;;0.93;0.93;;;;;;;;;;5072928;28;20067;-73
2022/11/13 02:49:17;;;;;;;0.33;0.33;;;;;;;;;;5072659;28;20082;-72
2022/11/13 02:51:43;;;;;;;0.40;0.40;;;;;;;;;;5072020;28;20775;-72
2022/11/13 02:54:09;;;;;;;0.40;0.40;;;;;;;;;;5073417;28;20029;-73
2022/11/13 02:56:35;;;;;;;0.30;0.30;;;;;;;;;;5073854;28;20724;-74
2022/11/13 02:59:01;;;;;;;0.30;0.30;;;;;;;;;;5073749;28;20036;-71
2022/11/13 03:01:27;;;;;;;0.30;0.30;;;;;;;;;;5055815;28;20029;-72
2022/11/13 03:03:53;;;;;;;0.30;0.30;;;;;;;;;;5053945;28;20040;-74
2022/11/13 03:06:19;;;;;;;0.30;0.30;;;;;;;;;;5056172;28;20284;-72
2022/11/13 03:08:45;;;;;;;0.30;0.30;;;;;;;;;;5073233;28;20436;-74
2022/11/13 03:11:11;;;;;;;0.90;0.90;;;;;;;;;;5073553;28;20782;-73
2022/11/13 03:13:38;;;;;;;0.30;0.30;;;;;;;;;;5072056;28;20072;-73
2022/11/13 03:16:15;;;;;;;0.30;0.30;;;9.50;99.90;;;;;;5060942;28;20082;-74
2022/11/13 03:18:41;;;;;;;0.30;0.30;;;;;;;;;;5053518;28;20037;-73
2022/11/13 03:21:09;;;;;;;0.30;0.30;;;9.40;99.90;;;;;;5052219;28;20029;-73
2022/11/13 03:23:36;;;;;;;0.30;0.30;;;;;;;;;;5073404;28;20052;-72
2022/11/13 03:26:06;;;;;;;0.45;0.45;;;;;;;;;;5072166;28;20025;-73
2022/11/13 03:28:33;;;;;;;0.30;0.30;;;9.40;99.90;;;;;;5073743;28;20024;-73
2022/11/13 03:30:59;;;;;;;0.30;0.30;;;;;;;;;;5061799;28;20472;-73
2022/11/13 03:33:26;;;;;;;0.47;0.47;;;;;;;;;;5053066;28;20029;-73
2022/11/13 03:35:52;;;;;;;0.60;0.60;;;;;;;;;;5053568;28;20068;-74
2022/11/13 03:38:18;;;;;;;1.63;1.53;;;;;;;;;;5069273;28;20056;-73
2022/11/13 03:40:44;;;;;;;0.40;0.40;;;;;;;;;;5073428;28;20037;-73
2022/11/13 03:43:10;;;;;;;0.30;0.30;;;;;;;;;;5072490;28;20264;-72
2022/11/13 03:45:36;;;;;;;0.30;0.30;;;;;;;;;;5068412;28;20353;-73
2022/11/13 03:48:02;;;;;;;0.32;0.32;;;;;;;;;;5084986;28;20055;-73
2022/11/13 03:50:27;;;;;;;0.30;0.30;;;;;;;;;;5052964;28;20029;-73
2022/11/13 03:52:53;;;;;;;0.40;0.40;;;;;;;;;;5064007;28;20413;-73
2022/11/13 03:55:22;;;;;;;1.47;1.37;;;;;;;;;;5071580;28;20040;-73
2022/11/13 03:57:48;;;;;;;0.30;0.30;;;;;;;;;;5071334;28;20024;-73
2022/11/13 04:00:15;;;;;;;0.40;0.40;;;;;;;;;;5072746;28;20029;-73
2022/11/13 04:02:41;;;;;;;0.55;0.55;;;;;;;;;;5051479;28;20301;-73
2022/11/13 04:05:07;;;;;;;0.37;0.37;;;;;;;;;;5051392;28;20056;-72
2022/11/13 04:07:33;;;;;;;0.30;0.30;;;;;;;;;;5058901;28;20261;-73
2022/11/13 04:09:59;;;;;;;0.40;0.40;;;;;;;;;;5072276;28;20103;-73
2022/11/13 04:12:25;;;;;;;0.30;0.30;;;;;;;;;;5072646;28;20056;-72
2022/11/13 04:14:51;;;;;;;0.55;0.55;;;;;;;;;;5072772;28;20090;-73
2022/11/13 04:17:17;;;;;;;1.07;1.07;;;;;;;;;;5057576;28;20029;-72
2022/11/13 04:19:43;;;;;;;0.30;0.30;;;;;;;;;;5052600;28;20037;-73
2022/11/13 04:22:09;;;;;;;0.40;0.40;;;;;;;;;;5053348;28;20112;-72
2022/11/13 04:24:35;;;;;;;0.30;0.30;;;;;;;;;;5072343;28;20276;-73
2022/11/13 04:27:01;;;;;;;0.30;0.30;;;;;;;;;;5072084;28;20036;-72
2022/11/13 04:29:27;;;;;;;0.30;0.30;;;9.60;99.90;;;;;;5072172;28;20040;-73
2022/11/13 04:31:55;;;;;;;0.30;0.30;;;;;;;;;;5062557;28;20068;-73
2022/11/13 04:34:21;;;;;;;0.28;0.28;;;;;;;;;;5051899;28;20036;-73
2022/11/13 04:36:47;;;;;;;0.30;0.30;;;;;;;;;;5051988;28;20487;-72
2022/11/13 04:39:13;;;;;;;0.50;0.50;;;;;;;;;;5051456;28;20484;-75
2022/11/13 04:44:24;;;;;;;0.25;0.25;;;;;;;;;;5051865;28;20066;-73
2022/11/13 04:46:50;;;;;;;0.60;0.60;;;;;;;;;;5063546;28;20059;-72
2022/11/13 04:49:16;;;;;;;0.30;0.30;;;;;;;;;;5070326;28;20032;-73
2022/11/13 04:51:42;;;;;;;0.30;0.30;;;;;;;;;;5072062;28;20036;-73
2022/11/13 04:54:08;;;;;;;0.40;0.40;;;;;;;;;;5056937;28;20526;-73
2022/11/13 04:56:42;;;;;;;0.30;0.30;;;;;;;;;;5050353;28;20037;-73
2022/11/13 04:59:19;;;;;;;0.65;0.65;;;;;;;;;;5052035;28;20755;-74
2022/11/13 05:01:44;;;;;;;0.52;0.52;;;;;;;;;;5052008;28;20448;-72
2022/11/13 05:04:12;;;;;;;0.30;0.30;;;;;;;;;;5066495;28;20116;-73
2022/11/13 05:06:38;;;;;;;0.28;0.28;;;;;;;;;;5051511;28;20037;-73
2022/11/13 05:09:04;;;;;;;0.40;0.40;;;;;;;;;;5062075;28;20052;-73
2022/11/13 05:11:30;;;;;;;0.30;0.30;;;;;;;;;;5071417;28;20037;-72
2022/11/13 05:13:56;;;;;;;5.00;2.22;;;;;;;;;;5069753;28;20102;-74
2022/11/13 05:16:22;;;;;;;0.30;0.30;;;;;;;;;;5071396;28;20467;-73
2022/11/13 05:18:48;;;;;;;0.30;0.30;;;;;;;;;;5049880;28;20270;-73
2022/11/13 05:21:14;;;;;;;0.30;0.30;;;;;;;;;;5051170;28;20039;-73
2022/11/13 05:23:40;;;;;;;0.40;0.40;;;;;;;;;;5056753;28;20025;-73
2022/11/13 05:26:07;;;;;;;0.45;0.45;;;;;;;;;;5069509;28;20065;-74
2022/11/13 05:28:33;;;;;;;0.20;0.20;;;;;;;;;;5070925;28;20052;-73
2022/11/13 05:31:06;;;;;;;0.30;0.30;;;9.60;99.90;;;;;;5069316;28;20040;-73
2022/11/13 05:33:32;;;;;;;0.43;0.43;;;;;;;;;;5055115;28;20035;-72
2022/11/13 05:36:02;;;;;;;0.30;0.30;;;;;;;;;;5050830;28;20036;-72
2022/11/13 05:38:31;;;;;;;0.30;0.30;;;;;;;;;;5053045;28;20029;-72
2022/11/13 05:41:05;;;;;;;0.30;0.30;;;;;;;;;;5070698;28;20044;-72
2022/11/13 05:43:31;;;;;;;0.20;0.20;;;;;;;;;;5069373;28;20398;-73
2022/11/13 05:46:05;;;;;;;0.30;0.30;;;;;;;;;;5070618;28;20028;-74
2022/11/13 05:48:31;;;;;;;0.32;0.32;;;;;;;;;;5055935;28;20040;-71
2022/11/13 05:51:04;;;;;;;0.30;0.30;;;;;;;;;;5049101;28;20438;-73
2022/11/13 05:53:32;;;;;;;0.30;0.30;;;;;;;;;;5049838;28;20499;-73
2022/11/13 05:56:03;;;;;;;0.30;0.30;;;;;;;;;;5070472;28;20033;-73
2022/11/13 05:58:29;;;;;;;0.30;0.30;;;;;;;;;;5070568;28;20407;-72
2022/11/13 06:01:04;;;;;;;0.40;0.40;;;9.60;99.90;;;;;;5069030;28;20476;-73
2022/11/13 06:03:30;;;;;;;0.40;0.40;;;;;;;;;;5059239;28;20064;-73
2022/11/13 06:05:57;;;;;;;0.30;0.30;;;9.70;99.90;;;;;;5048799;28;20037;-73
2022/11/13 06:08:23;;;;;;;0.30;0.30;;;;;;;;;;5050661;28;20029;-73
2022/11/13 06:10:57;;;;;;;0.30;0.30;;;9.70;99.90;;;;;;5067911;28;20064;-73
2022/11/13 06:13:22;;;;;;;0.77;0.73;;;;;;;;;;5070748;28;20024;-72
2022/11/13 06:15:48;;;;;;;0.40;0.40;;;;;;;;;;5070858;28;20033;-73
2022/11/13 06:18:14;;;;;;;1.00;1.00;;;;;;;;;;5063209;28;20266;-73
2022/11/13 06:20:40;;;;;;;0.40;0.40;;;;;;;;;;5050134;28;20078;-74
2022/11/13 06:23:06;;;;;;;0.87;0.77;;;;;;;;;;5050656;28;20082;-73
2022/11/13 06:25:32;;;;;;;0.30;0.30;;;;;;;;;;5063344;28;20024;-73
2022/11/13 06:27:58;;;;;;;0.30;0.30;;;;;;;;;;5070226;28;20747;-73
2022/11/13 06:30:24;;;;;;;0.40;0.40;;;;;;;;;;5070092;28;20368;-73
2022/11/13 06:32:53;;;;;;;0.50;0.50;;;;;;;;;;5068964;28;20466;-74
2022/11/13 06:35:20;;;;;;;0.30;0.30;;;;;;;;;;5050008;28;20436;-72
2022/11/13 06:37:46;;;;;;;0.30;0.30;;;;;;;;;;5050610;28;20425;-72
2022/11/13 06:40:12;;;;;;;1.15;1.15;;;;;;;;;;5081645;28;20041;-73
2022/11/13 06:42:38;;;;;;;0.35;0.35;;;;;;;;;;5050658;28;20523;-73
2022/11/13 06:45:04;;;;;;;0.45;0.45;;;;;;;;;;5050221;28;20040;-73
2022/11/13 06:47:30;;;;;;;0.93;0.93;;;;;;;;;;5050047;28;20043;-72
2022/11/13 06:49:56;;;;;;;0.30;0.30;;;;;;;;;;5066715;28;20036;-73
2022/11/13 06:52:22;;;;;;;0.30;0.30;;;;;;;;;;5070482;28;20262;-74
2022/11/13 06:54:48;;;;;;;0.40;0.40;;;;;;;;;;5066924;28;20036;-73
2022/11/13 06:57:14;;;;;;;0.83;0.83;;;;;;;;;;5070050;28;20108;-73
2022/11/13 06:59:42;;;;;;;0.40;0.40;;;;;;;;;;5070019;28;20325;-72
2022/11/13 07:02:08;;;;;;;0.40;0.40;;;;;;;;;;5070179;28;20043;-74
2022/11/13 07:04:34;;;;;;;0.30;0.30;;;;;;;;;;5058067;28;20132;-74
2022/11/13 07:07:00;;;;;;;0.30;0.30;;;;;;;;;;5050164;28;20515;-73
2022/11/13 07:09:26;;;;;;;0.40;0.40;;;;;;;;;;5049775;28;20045;-74
2022/11/13 07:11:52;;;;;;;0.30;0.30;;;;;;;;;;5048935;28;20293;-74
2022/11/13 07:14:18;;;;;;;0.37;0.37;;;;;;;;;;5050112;28;20049;-73
2022/11/13 07:16:44;;;;;;;0.30;0.30;;;;;;;;;;5050573;28;20072;-73
2022/11/13 07:19:10;;;;;;;0.40;0.40;;;;;;;;;;5058100;28;20114;-74
2022/11/13 07:21:36;;;;;;;0.40;0.40;;;;;;;;;;5072075;28;20028;-74
2022/11/13 07:24:02;;;;;;;0.40;0.40;;;;;;;;;;5073398;28;20241;-73
2022/11/13 07:26:28;;;;;;;0.30;0.30;;;;;;;;;;5060088;28;20365;-73
2022/11/13 07:28:54;;;;;;;0.40;0.40;;;;;;;;;;5053200;28;20333;-74
2022/11/13 07:31:20;;;;;;;0.43;0.43;;;;;;;;;;5053287;28;20041;-74
2022/11/13 07:33:48;;;;;;;0.40;0.40;;;;;;;;;;5052601;28;20025;-73
2022/11/13 07:36:14;;;;;;;0.30;0.30;;;;;;;;;;5073194;28;20036;-74
2022/11/13 07:38:40;;;;;;;0.30;0.30;;;;;;;;;;5071662;28;20024;-74
2022/11/13 07:41:06;;;;;;;0.40;0.40;;;;;;;;;;5064883;28;20055;-72
2022/11/13 07:43:32;;;;;;;0.40;0.40;;;;;;;;;;5052544;28;20269;-73
2022/11/13 07:45:59;;;;;;;0.60;0.60;;;;;;;;;;5051573;28;20029;-74
2022/11/13 07:48:26;;;;;;;0.30;0.30;;;;;;;;;;5051501;28;20373;-73
2022/11/13 07:50:52;;;;;;;0.30;0.30;;;;;;;;;;5068505;28;20128;-73
2022/11/13 07:53:21;;;;;;;0.40;0.40;;;;;;;;;;5071572;28;20064;-73
2022/11/13 07:55:49;;;;;;;0.30;0.30;;;;;;;;;;5070896;28;20292;-74
2022/11/13 07:58:15;;;;;;;1.65;0.75;;;;;;;;;;5072310;28;20063;-74
2022/11/13 08:00:42;;;;;;;1.95;0.95;;;;;;;;;;5072556;28;20325;-73
2022/11/13 08:03:09;;;;;;;0.60;0.60;;;;;;;;;;5071283;28;20032;-73
2022/11/13 08:05:35;;;;;;;0.40;0.40;;;;;;;;;;5060563;28;20035;-74
2022/11/13 08:08:01;;;;;;;0.73;0.73;;;;;;;;;;5051065;28;20032;-73
2022/11/13 08:10:27;;;;;;;0.40;0.40;;;;;;;;;;5052308;28;20045;-73
2022/11/13 08:13:00;;;;;;;0.82;0.82;;;;;;;;;;5069232;28;20523;-74
2022/11/13 08:15:27;;;;;;;0.30;0.30;;;;;;;;;;5072358;28;20051;-73
2022/11/13 08:17:57;;;;;;;0.38;0.38;;;;;;;;;;5072344;28;20119;-74
2022/11/13 08:20:24;;;;;;;0.20;0.20;;;10.60;99.90;;;;;;5062550;28;20040;-72
2022/11/13 08:22:51;;;;;;;0.30;0.30;;;;;;;;;;5051060;28;20037;-72
2022/11/13 08:25:17;;;;;;;0.43;0.43;;;;;;;;;;5050782;28;20021;-73
2022/11/13 08:27:44;;;;;;;0.30;0.30;;;;;;;;;;5067494;28;20036;-73
2022/11/13 08:30:10;;;;;;;0.30;0.30;;;;;;;;;;5070356;28;20067;-72
2022/11/13 08:32:36;;;;;;;0.30;0.30;;;;;;;;;;5070789;28;20391;-73
2022/11/13 08:35:02;;;;;;;0.40;0.40;;;;;;;;;;5067277;28;20033;-74
2022/11/13 08:37:28;;;;;;;0.30;0.30;;;;;;;;;;5050855;28;20420;-73
2022/11/13 08:39:54;;;;;;;0.70;0.70;;;;;;;;;;5052122;28;20254;-73
2022/11/13 08:42:20;;;;;;;0.57;0.57;;;;;;;;;;5053291;28;20033;-74
2022/11/13 08:44:46;;;;;;;0.40;0.40;;;;;;;;;;5050608;28;20512;-74
2022/11/13 08:47:12;;;;;;;0.40;0.40;;;;;;;;;;5052043;28;20282;-73
2022/11/13 08:49:38;;;;;;;0.40;0.40;;;;;;;;;;5051713;28;20361;-74
2022/11/13 08:52:04;;;;;;;1.53;1.43;;;;;;;;;;5069593;28;20276;-74
2022/11/13 08:54:30;;;;;;;0.30;0.30;;;;;;;;;;5071506;28;20090;-74
2022/11/13 08:56:56;;;;;;;2.50;1.67;;;;;;;;;;5069871;28;20060;-73
2022/11/13 08:59:22;;;;;;;0.50;0.50;;;;;;;;;;5070887;28;20060;-74
2022/11/13 09:01:49;;;;;;;0.40;0.40;;;;;;;;;;5070082;28;20468;-73
2022/11/13 09:04:15;;;;;;;1.45;1.05;;;;;;;;;;5069906;28;20044;-74
2022/11/13 09:06:41;;;;;;;0.63;0.63;;;;;;;;;;5058144;28;20036;-73
2022/11/13 09:09:07;;;;;;;0.37;0.37;;;;;;;;;;5050983;28;20510;-73
2022/11/13 09:11:33;;;;;;;0.40;0.40;;;;;;;;;;5051517;28;20488;-75
2022/11/13 09:13:59;;;;;;;0.40;0.40;;;;;;;;;;5068712;28;20261;-74
2022/11/13 09:16:25;;;;;;;1.35;1.25;;;;;;;;;;5069634;28;20037;-74
2022/11/13 09:18:51;;;;;;;0.43;0.43;;;;;;;;;;5069869;28;20264;-74
2022/11/13 09:21:17;;;;;;;0.75;0.75;;;;;;;;;;5063270;28;20286;-74
2022/11/13 09:23:44;;;;;;;0.40;0.40;;;;;;;;;;5049641;28;20036;-74
2022/11/13 09:26:10;;;;;;;0.40;0.40;;;;;;;;;;5050993;28;20441;-75
2022/11/13 09:28:36;;;;;;;0.47;0.47;;;;;;;;;;5069592;28;20032;-73
2022/11/13 09:31:06;;;;;;;0.70;0.70;;;;;;;;;;5070796;28;20029;-74
2022/11/13 09:33:32;;;;;;;1.38;1.27;;;;;;;;;;5069555;28;20519;-74
2022/11/13 09:35:58;;;;;;;0.40;0.40;;;;;;;;;;5061636;28;20021;-73
2022/11/13 09:38:24;;;;;;;0.40;0.40;;;;;;;;;;5050930;28;20507;-72
2022/11/13 09:41:16;;;;;;;0.50;0.50;;;12.00;99.90;;;;;;5048857;28;20297;-73
2022/11/13 09:43:42;;;;;;;0.32;0.32;;;;;;;;;;5069240;28;20051;-73
2022/11/13 09:46:20;;;;;;;0.40;0.40;;;;;;;;;;5070608;28;20036;-73
2022/11/13 09:48:49;;;;;;;0.93;0.93;;;;;;;;;;5069316;28;20254;-73
2022/11/13 09:51:21;;;;;;;0.30;0.30;;;;;;;;;;5061320;28;20029;-74
2022/11/13 09:53:47;;;;;;;0.30;0.30;;;;;;;;;;5049092;28;20021;-74
2022/11/13 09:59:00;;;;;;;0.50;0.50;;;;;;;;;;5170092;27;20377;-73
2022/11/13 10:01:46;;;;;;;0.30;0.30;;;;;;;;;;5138681;27;20334;-74
2022/11/13 10:08:27;;;;;;;0.40;0.40;;;;;;;;;;5067461;28;20371;-74
2022/11/13 10:11:11;;;;;;;0.40;0.40;;;12.90;99.90;;;;;;5067311;28;20443;-68
2022/11/13 10:13:45;;;;;;;0.30;0.30;;;;;;;;;;5066741;28;20505;-73
2022/11/13 10:16:11;;;;;;;0.30;0.30;;;;;;;;;;5065963;28;20033;-71
2022/11/13 10:18:37;;;;;;;0.40;0.40;;;;;;;;;;5071634;28;20093;-71
2022/11/13 10:21:23;;;;;;;0.40;0.40;;;12.60;99.90;;;;;;5084274;28;20125;-71
2022/11/13 10:23:54;;;;;;;0.30;0.30;;;;;;;;;;5047533;28;20055;-71
2022/11/13 10:26:21;;;;;;;0.30;0.30;;;;;;;;;;5058004;28;20033;-71
2022/11/13 10:28:49;;;;;;;0.30;0.30;;;;;;;;;;5065945;28;20024;-72
2022/11/13 10:31:35;;;;;;;0.40;0.40;;;;;;;;;;5067198;28;20445;-72
2022/11/13 10:34:01;;;;;;;0.30;0.30;;;;;;;;;;5065572;28;20024;-69
2022/11/13 10:36:56;;;;;;;0.40;0.40;;;;;;;;;;5087272;28;20039;-71
2022/11/13 10:39:22;;;;;;;0.30;0.30;;;;;;;;;;5082811;28;20488;-70
2022/11/13 10:41:50;;;;;;;0.40;0.40;;;;;;;;;;5080888;28;20032;-71
2022/11/13 10:44:26;;;;;;;0.30;0.30;;;;;;;;;;5065435;28;20040;-71
2022/11/13 10:47:03;;;;;;;0.30;0.30;;;;;;;;;;5066931;28;20040;-70
2022/11/13 10:49:29;;;;;;;0.40;0.40;;;;;;;;;;5066710;28;20414;-69
2022/11/13 10:51:56;;;;;;;0.38;0.38;;;;;;;;;;5066204;28;20028;-71
2022/11/13 10:54:24;;;;;;;;;;;;;;;;;;5067148;28;20036;-69
2022/11/13 10:57:05;;;;;;;0.30;0.30;;;14.50;99.90;;;;;;5066519;28;20392;-71
2022/11/13 10:59:39;;;;;;;0.30;0.30;;;;;;;;;;5066574;28;20103;-70
2022/11/13 11:02:24;;;;;;;0.30;0.30;;;;;;;;;;5066584;28;20040;-71
2022/11/13 11:05:00;;;;;;;0.30;0.30;;;;;;;;;;5062971;28;20041;-69
2022/11/13 11:07:26;;;;;;;0.73;0.73;;;;;;;;;;5046191;28;20053;-71
2022/11/13 11:09:52;;;;;;;0.30;0.30;;;;;;;;;;5046459;28;20040;-70
2022/11/13 11:12:23;;;;;;;0.60;0.60;;;;;;;;;;5046637;28;20328;-71
2022/11/13 11:14:58;;;;;;;0.60;0.60;;;;;;;;;;5046689;28;20345;-69
2022/11/13 11:17:42;;;;;;;0.93;0.93;;;;;;;;;;5046065;28;20056;-69
2022/11/13 11:20:20;;;;;;;0.30;0.30;;;;;;;;;;5013472;28;20026;-69
2022/11/13 11:22:49;;;;;;;0.40;0.40;;;;;;;;;;5013679;28;20088;-70
2022/11/13 11:25:33;;;;;;;0.30;0.30;;;15.00;99.90;;;;;;5013557;28;20072;-70
2022/11/13 11:28:02;;;;;;;0.30;0.30;;;;;;;;;;5022825;28;20033;-70
2022/11/13 11:30:35;;;;;;;1.40;0.55;;;14.60;99.90;;;;;;5033181;28;20176;-70
2022/11/13 11:33:08;;;;;;;0.30;0.30;;;;;;;;;;5033307;28;20041;-69
2022/11/13 11:35:52;;;;;;;0.30;0.30;;;;;;;;;;5032629;28;20029;-69
2022/11/13 11:38:38;;;;;;;0.45;0.45;;;;;;;;;;5033078;28;20037;-70
2022/11/13 11:41:12;;;;;;;0.30;0.30;;;;;;;;;;5029227;28;20053;-70
2022/11/13 11:43:38;;;;;;;0.50;0.50;;;;;;;;;;5032506;28;20030;-71
2022/11/13 11:46:04;;;;;;;0.40;0.40;;;;;;;;;;5030877;28;20059;-69
2022/11/13 11:48:30;;;;;;;0.40;0.40;;;15.40;99.90;;;;;;5031280;28;20032;-70
2022/11/13 11:51:15;;;;;;;0.68;0.68;;;;;;;;;;5031133;28;20028;-71
2022/11/13 11:53:50;;;;;;;0.85;0.85;;;;;;;;;;5031065;28;20057;-70
2022/11/13 11:56:23;;;;;;;0.73;0.73;;;;;;;;;;5031940;28;20038;-70
2022/11/13 11:59:00;;;;;;;0.30;0.30;;;;;;;;;;5031656;28;20032;-70
2022/11/13 12:01:26;;;;;;;0.30;0.30;;;;;;;;;;5032304;28;20057;-72
2022/11/13 12:03:55;;;;;;;0.53;0.53;;;;;;;;;;5032644;28;20060;-71
2022/11/13 12:06:21;;;;;;;0.40;0.40;;;;;;;;;;5031662;28;20290;-70
2022/11/13 12:09:07;;;;;;;0.40;0.40;;;13.30;99.90;;;;;;5031767;28;20095;-72
2022/11/13 12:11:51;;;;;;;0.30;0.30;;;;;;;;;;5029839;28;20065;-71
2022/11/13 12:14:36;;;;;;;0.35;0.35;;;;;;;;;;5030016;28;20091;-72
2022/11/13 12:17:20;;;;;;;0.40;0.40;;;13.10;99.90;;;;;;5045433;28;20447;-69
2022/11/13 12:19:49;;;;;;;0.30;0.30;;;;;;;;;;5030050;28;20072;-72
2022/11/13 12:22:21;;;;;;;0.40;0.40;;;;;;;;;;5030907;28;20026;-71
2022/11/13 12:25:20;;;;;;;0.30;0.30;;;;;;;;;;5030528;28;20540;-71
2022/11/13 12:28:21;;;;;;;0.30;0.30;;;13.00;99.90;;;;;;5008577;28;20041;-71
2022/11/13 12:30:54;;;;;;;0.30;0.30;;;;;;;;;;5019109;28;20120;-71
2022/11/13 12:33:33;;;;;;;1.27;1.05;;;;;;;;;;5031899;28;20021;-73
2022/11/13 12:36:00;;;;;;;0.32;0.32;;;;;;;;;;5031814;28;20376;-72
2022/11/13 12:38:41;;;;;;;0.40;0.40;;;;;;;;;;5031336;28;20035;-72
2022/11/13 12:41:19;;;;;;;0.30;0.30;;;;;;;;;;5031414;28;20041;-73
2022/11/13 12:43:50;;;;;;;0.30;0.30;;;;;;;;;;5029869;28;20027;-72
2022/11/13 12:46:17;;;;;;;0.32;0.32;;;;;;;;;;5031695;28;20052;-72
2022/11/13 12:48:45;;;;;;;0.43;0.43;;;12.70;99.90;;;;;;5031595;28;20065;-73
2022/11/13 12:51:14;;;;;;;0.90;0.90;;;12.70;99.90;;;;;;5030120;28;20038;-73
2022/11/13 12:53:47;;;;;;;0.40;0.40;;;12.70;99.90;;;;;;5029783;28;20044;-74
2022/11/13 12:56:23;;;;;;;0.32;0.32;;;12.70;99.90;;;;;;5031375;28;20103;-72
2022/11/13 12:59:07;;;;;;;0.75;0.75;;;;;;;;;;5030901;28;20494;-74
2022/11/13 13:01:41;;;;;;;0.30;0.30;;;12.70;99.90;;;;;;5031106;28;20108;-74
2022/11/13 13:04:07;;;;;;;0.30;0.30;;;;;;;;;;5031169;28;20033;-73
2022/11/13 13:06:51;;;;;;;0.30;0.30;;;;;;;;;;5030969;28;20555;-73
2022/11/13 13:09:36;;;;;;;0.60;0.60;;;;;;;;;;5031009;28;20262;-70
2022/11/13 13:12:21;;;;;;;0.30;0.30;;;;;;;;;;5031089;28;20116;-73
2022/11/13 13:15:21;;;;;;;0.50;0.50;;;12.80;99.90;;;;;;5030827;28;20129;-74
2022/11/13 13:17:47;;;;;;;0.50;0.50;;;;;;;;;;5031540;28;20041;-73
2022/11/13 13:20:13;;;;;;;0.40;0.40;;;;;;;;;;5026515;28;20268;-72
2022/11/13 13:22:39;;;;;;;0.83;0.83;;;;;;;;;;5014696;28;20756;-71
2022/11/13 13:25:07;;;;;;;0.40;0.40;;;;;;;;;;5029975;28;20243;-73
2022/11/13 13:27:37;;;;;;;0.35;0.35;;;12.30;99.90;;;;;;5031371;28;20033;-71
2022/11/13 13:30:16;;;;;;;0.30;0.30;;;12.20;99.90;;;;;;5030598;28;20033;-72
2022/11/13 13:32:49;;;;;;;0.32;0.32;;;;;;;;;;5030990;28;20056;-73
2022/11/13 13:35:34;;;;;;;0.20;0.20;;;;;;;;;;5030708;28;20469;-75
2022/11/13 13:38:26;;;;;;;0.30;0.30;;;;;;;;;;5029120;28;20423;-72
2022/11/13 13:41:11;;;;;;;0.30;0.30;;;;;;;;;;5028232;28;20040;-73
2022/11/13 13:43:44;;;;;;;0.30;0.30;;;;;;;;;;5029399;28;20416;-73
2022/11/13 13:46:20;;;;;;;0.45;0.45;;;;;;;;;;5030266;28;20033;-70
2022/11/13 13:48:47;;;;;;;0.52;0.52;;;11.70;99.90;;;;;;5031633;28;20538;-71
2022/11/13 13:51:25;;;;;;;1.52;1.42;;;;;;;;;;5029128;28;20365;-72
2022/11/13 13:53:52;;;;;;;0.40;0.40;;;;;;;;;;5030480;28;20025;-71
2022/11/13 13:56:20;;;;;;;1.17;1.15;;;11.60;99.90;;;;;;5029234;28;20503;-72
2022/11/13 13:58:46;;;;;;;0.50;0.50;;;11.90;99.90;;;;;;5030535;28;20021;-73
2022/11/13 14:01:24;;;;;;;0.70;0.70;;;11.50;99.90;;;;;;5029876;28;20026;-74
2022/11/13 14:04:10;;;;;;;0.30;0.30;;;11.50;99.90;;;;;;5030717;28;20436;-71
2022/11/13 14:06:46;;;;;;;0.30;0.30;;;;;;;;;;5010384;28;20343;-72
2022/11/13 14:09:17;;;;;;;0.35;0.35;;;;;;;;;;5020633;28;20090;-72
2022/11/13 14:11:43;;;;;;;0.63;0.63;;;;;;;;;;5030667;28;20112;-73
2022/11/13 14:14:15;;;;;;;0.65;0.65;;;;;;;;;;5029127;28;20457;-72
2022/11/13 14:16:48;;;;;;;0.90;0.90;;;11.30;99.90;;;;;;5029679;28;20473;-71
2022/11/13 14:19:14;;;;;;;1.08;0.85;;;;;;;;;;5025172;28;20060;-72
2022/11/13 14:21:41;;;;;;;0.32;0.32;;;11.80;99.90;;;;;;5010765;28;20110;-74
2022/11/13 14:24:13;;;;;;;0.30;0.30;;;;;;;;;;5017642;28;20049;-73
2022/11/13 14:26:39;;;;;;;0.30;0.30;;;;;;;;;;5030182;28;20108;-74
2022/11/13 14:29:05;;;;;;;0.30;0.30;;;;;;;;;;5030217;28;20163;-72
2022/11/13 14:31:35;;;;;;;0.40;0.40;;;;;;;;;;5030344;28;20079;-73
2022/11/13 14:34:14;;;;;;;0.40;0.40;;;;;;;;;;5028614;28;20270;-72
2022/11/13 14:36:40;;;;;;;0.30;0.30;;;;;;;;;;5029156;28;20037;-71
2022/11/13 14:39:11;;;;;;;0.45;0.45;;;;;;;;;;5028366;28;20322;-74
2022/11/13 14:41:37;;;;;;;0.40;0.40;;;;;;;;;;5028792;28;20118;-74
2022/11/13 14:44:03;;;;;;;0.30;0.30;;;;;;;;;;5028763;28;20081;-73
2022/11/13 14:46:31;;;;;;;0.30;0.30;;;;;;;;;;5029879;28;20040;-73